Time;durP1;ratioP1;P1;durP2;ratioP2;P2;SDS_P1;SDS_P2;PMS_P1;PMS_P2;Temp;Humidity;BMP_temperature;BMP_pressure;BME280_temperature;BME280_humidity;BME280_pressure;Samples;Min_cycle;Max_cycle;Signal;HPM_P1;HPM_P2
2023/12/18 00:00:39;;;;;;;15.90;11.50;;;5.60;99.90;;;;;;4914944;29;20056;-74
2023/12/18 00:03:06;;;;;;;12.27;10.57;;;5.70;99.90;;;;;;4934907;28;20418;-74
2023/12/18 00:05:33;;;;;;;17.73;12.60;;;5.80;99.90;;;;;;4924543;29;20923;-74
2023/12/18 00:08:00;;;;;;;13.57;10.43;;;5.90;99.90;;;;;;4923086;29;20690;-74
2023/12/18 00:10:26;;;;;;;9.70;8.75;;;6.00;99.90;;;;;;4917487;29;20066;-74
2023/12/18 00:12:53;;;;;;;9.40;7.85;;;6.10;99.90;;;;;;4925463;29;20051;-74
2023/12/18 00:15:20;;;;;;;9.13;6.78;;;6.30;99.90;;;;;;4911873;28;20692;-74
2023/12/18 00:17:47;;;;;;;10.30;6.55;;;6.40;99.90;;;;;;4933588;28;20492;-74
2023/12/18 00:20:14;;;;;;;6.60;5.88;;;6.50;99.90;;;;;;4919995;29;20044;-74
2023/12/18 00:22:40;;;;;;;9.65;5.72;;;6.60;99.90;;;;;;4915399;29;20059;-74
2023/12/18 00:25:07;;;;;;;6.57;5.88;;;6.70;99.90;;;;;;4919901;29;20040;-74
2023/12/18 00:27:34;;;;;;;6.03;5.32;;;6.80;99.90;;;;;;4927567;28;20233;-74
2023/12/18 00:30:01;;;;;;;6.90;6.30;;;6.80;99.90;;;;;;4923330;28;20044;-74
2023/12/18 00:32:28;;;;;;;7.03;5.85;;;6.90;99.90;;;;;;4928342;28;20502;-74
2023/12/18 00:34:55;;;;;;;6.32;5.82;;;7.00;99.90;;;;;;4928337;28;20047;-74
2023/12/18 00:37:22;;;;;;;9.18;6.70;;;7.00;99.90;;;;;;4927326;28;20046;-75
2023/12/18 00:39:49;;;;;;;6.78;6.18;;;7.00;99.90;;;;;;4931014;28;20522;-74
2023/12/18 00:42:16;;;;;;;8.23;7.43;;;7.00;99.90;;;;;;4922011;29;20055;-74
2023/12/18 00:44:42;;;;;;;7.90;7.20;;;7.00;99.90;;;;;;4914465;29;20078;-74
2023/12/18 00:47:09;;;;;;;8.90;7.28;;;7.00;99.90;;;;;;4922066;28;20111;-74
2023/12/18 00:49:36;;;;;;;8.13;7.40;;;6.90;99.90;;;;;;4916317;29;20703;-74
2023/12/18 00:52:03;;;;;;;7.53;6.93;;;6.90;99.90;;;;;;4924609;28;20532;-74
2023/12/18 00:54:30;;;;;;;7.32;6.82;;;6.90;99.90;;;;;;4918042;29;20063;-74
2023/12/18 00:56:57;;;;;;;7.28;6.68;;;6.90;99.90;;;;;;4921807;28;20042;-74
2023/12/18 00:59:23;;;;;;;7.78;7.07;;;6.90;99.90;;;;;;4921256;29;20083;-74
2023/12/18 01:01:50;;;;;;;7.07;6.55;;;7.00;99.90;;;;;;4923789;29;20040;-74
2023/12/18 01:04:17;;;;;;;6.97;6.43;;;6.90;99.90;;;;;;4918700;29;20126;-74
2023/12/18 01:06:44;;;;;;;7.30;6.57;;;7.00;99.90;;;;;;4912515;29;20100;-74
2023/12/18 01:09:12;;;;;;;8.88;7.55;;;7.00;99.90;;;;;;4929835;28;20208;-74
2023/12/18 01:11:39;;;;;;;8.32;7.65;;;7.00;99.90;;;;;;4914557;29;20552;-74
2023/12/18 01:14:08;;;;;;;8.32;7.72;;;6.90;99.90;;;;;;4919037;29;20039;-74
2023/12/18 01:16:35;;;;;;;8.88;7.70;;;6.80;99.90;;;;;;4916043;29;20059;-74
2023/12/18 01:19:02;;;;;;;6.97;6.28;;;6.80;99.90;;;;;;4926017;28;20044;-74
2023/12/18 01:21:30;;;;;;;9.77;7.47;;;6.80;99.90;;;;;;4919224;28;20577;-74
2023/12/18 01:23:56;;;;;;;7.65;6.95;;;6.90;99.90;;;;;;4926082;28;20040;-74
2023/12/18 01:26:23;;;;;;;7.93;7.22;;;6.90;99.90;;;;;;4917066;29;20044;-73
2023/12/18 01:28:50;;;;;;;7.78;7.07;;;6.90;99.90;;;;;;4927012;29;20116;-74
2023/12/18 01:31:21;;;;;;;7.95;6.85;;;6.90;99.90;;;;;;4920367;29;20039;-74
2023/12/18 01:33:48;;;;;;;8.50;6.85;;;7.00;99.90;;;;;;4920280;29;20101;-73
2023/12/18 01:36:15;;;;;;;7.57;6.88;;;7.00;99.90;;;;;;4914248;29;20040;-74
2023/12/18 01:38:42;;;;;;;8.38;6.68;;;7.00;99.90;;;;;;4923107;29;20044;-74
2023/12/18 01:41:09;;;;;;;9.68;7.43;;;7.00;99.90;;;;;;4917666;28;20051;-74
2023/12/18 01:43:37;;;;;;;12.40;8.15;;;7.00;99.90;;;;;;4919424;29;20519;-74
2023/12/18 01:46:05;;;;;;;10.38;9.35;;;7.00;99.90;;;;;;4917659;29;20091;-74
2023/12/18 01:48:33;;;;;;;11.88;9.13;;;7.00;99.90;;;;;;4913653;29;20613;-73
2023/12/18 01:51:01;;;;;;;9.70;8.70;;;6.90;99.90;;;;;;4917292;28;20099;-74
2023/12/18 01:53:39;;;;;;;10.43;9.43;;;6.90;99.90;;;;;;4916180;29;20056;-74
2023/12/18 01:56:06;;;;;;;10.73;9.73;;;6.90;99.90;;;;;;4913996;29;20055;-74
2023/12/18 01:58:34;;;;;;;11.60;10.40;;;6.80;99.90;;;;;;4931225;28;20473;-74
2023/12/18 02:01:01;;;;;;;11.27;10.18;;;6.80;99.90;;;;;;4921847;29;20128;-75
2023/12/18 02:03:30;;;;;;;11.27;10.18;;;6.70;99.90;;;;;;4919200;29;20522;-74
2023/12/18 02:05:57;;;;;;;11.50;9.38;;;6.70;99.90;;;;;;4918034;29;20036;-74
2023/12/18 02:08:25;;;;;;;12.18;9.68;;;6.70;99.90;;;;;;4930101;28;20048;-74
2023/12/18 02:10:55;;;;;;;10.57;9.23;;;6.60;99.90;;;;;;4907462;29;20060;-74
2023/12/18 02:13:22;;;;;;;13.70;10.65;;;6.60;99.90;;;;;;4914092;29;20562;-74
2023/12/18 02:15:49;;;;;;;14.68;10.57;;;6.50;99.90;;;;;;4930092;28;20039;-74
2023/12/18 02:18:16;;;;;;;15.40;10.10;;;6.40;99.90;;;;;;4907868;28;20054;-74
2023/12/18 02:20:43;;;;;;;16.17;9.68;;;6.30;99.90;;;;;;4919631;29;20070;-74
2023/12/18 02:23:11;;;;;;;19.52;10.73;;;6.30;99.90;;;;;;4920100;29;20043;-74
2023/12/18 02:25:37;;;;;;;12.95;9.80;;;6.30;99.90;;;;;;4911694;29;20048;-74
2023/12/18 02:28:30;;;;;;;14.25;9.48;;;6.30;99.90;;;;;;4922640;28;20051;-73
2023/12/18 02:30:57;;;;;;;13.75;9.95;;;6.30;99.90;;;;;;4901703;29;20048;-73
2023/12/18 02:33:24;;;;;;;14.70;10.77;;;6.30;99.90;;;;;;4892946;29;20036;-73
2023/12/18 02:35:52;;;;;;;14.43;10.60;;;6.30;99.90;;;;;;4896092;29;20044;-72
2023/12/18 02:38:18;;;;;;;11.40;10.18;;;6.30;99.90;;;;;;4887310;29;20052;-74
2023/12/18 02:40:45;;;;;;;13.68;10.75;;;6.30;99.90;;;;;;4896481;29;20148;-73
2023/12/18 02:43:12;;;;;;;11.63;9.90;;;6.20;99.90;;;;;;4876535;29;20052;-74
2023/12/18 02:45:39;;;;;;;13.20;10.57;;;6.20;99.90;;;;;;4893393;29;20044;-74
2023/12/18 02:48:06;;;;;;;13.45;10.73;;;6.20;99.90;;;;;;4889608;29;20033;-74
2023/12/18 02:50:33;;;;;;;13.88;10.10;;;6.20;99.90;;;;;;4905659;29;20116;-73
2023/12/18 02:52:59;;;;;;;15.27;10.30;;;6.20;99.90;;;;;;4911381;29;20044;-73
2023/12/18 02:55:26;;;;;;;16.60;10.75;;;6.10;99.90;;;;;;4907361;29;20040;-73
2023/12/18 02:57:53;;;;;;;15.10;10.38;;;6.10;99.90;;;;;;4913632;29;20059;-73
2023/12/18 03:00:20;;;;;;;16.98;11.98;;;6.00;99.90;;;;;;4897999;28;20548;-73
2023/12/18 03:02:47;;;;;;;12.98;10.98;;;6.00;99.90;;;;;;4910542;29;20088;-73
2023/12/18 03:05:14;;;;;;;14.20;10.55;;;5.90;99.90;;;;;;4908992;29;20206;-73
2023/12/18 03:07:41;;;;;;;16.70;12.40;;;5.80;99.90;;;;;;4879086;29;20048;-73
2023/12/18 03:10:08;;;;;;;12.65;10.45;;;5.70;99.90;;;;;;4878573;29;20765;-75
2023/12/18 03:12:35;;;;;;;13.65;10.73;;;5.70;99.90;;;;;;4892756;29;20096;-73
2023/12/18 03:15:02;;;;;;;14.85;11.00;;;5.70;99.90;;;;;;4875945;29;20045;-73
2023/12/18 03:17:28;;;;;;;17.75;10.95;;;5.70;99.90;;;;;;4895814;29;20052;-73
2023/12/18 03:19:58;;;;;;;15.65;10.77;;;5.70;99.90;;;;;;4921381;29;20044;-76
2023/12/18 03:22:25;;;;;;;16.35;12.07;;;5.70;99.90;;;;;;4911440;29;20052;-75
2023/12/18 03:24:52;;;;;;;16.02;12.00;;;5.70;99.90;;;;;;4925723;29;20048;-75
2023/12/18 03:27:19;;;;;;;14.77;11.00;;;5.60;99.90;;;;;;4907289;29;20044;-75
2023/12/18 03:29:45;;;;;;;14.75;12.63;;;5.60;99.90;;;;;;4919582;29;20080;-73
2023/12/18 03:32:12;;;;;;;18.67;12.65;;;5.60;99.90;;;;;;4899985;29;20525;-73
2023/12/18 03:34:39;;;;;;;12.63;10.23;;;5.50;99.90;;;;;;4913330;29;20060;-74
2023/12/18 03:37:06;;;;;;;16.67;11.30;;;5.50;99.90;;;;;;4897839;29;20058;-74
2023/12/18 03:39:33;;;;;;;17.08;13.55;;;5.50;99.90;;;;;;4890028;29;20056;-74
2023/12/18 03:42:00;;;;;;;19.50;12.75;;;5.50;99.90;;;;;;4906262;29;20048;-74
2023/12/18 03:44:27;;;;;;;16.67;14.10;;;5.40;99.90;;;;;;4912605;29;20131;-74
2023/12/18 03:46:53;;;;;;;19.63;12.98;;;5.40;99.90;;;;;;4905260;29;20436;-74
2023/12/18 03:49:20;;;;;;;18.20;14.23;;;5.30;99.90;;;;;;4894654;29;20048;-75
2023/12/18 03:51:47;;;;;;;24.10;14.02;;;5.20;99.90;;;;;;4897864;29;20044;-75
2023/12/18 03:54:14;;;;;;;19.98;13.23;;;5.10;99.90;;;;;;4892712;29;20128;-75
2023/12/18 03:56:41;;;;;;;22.35;13.63;;;5.00;99.90;;;;;;4894054;28;20036;-75
2023/12/18 03:59:08;;;;;;;19.88;13.30;;;5.00;99.90;;;;;;4895683;29;20040;-76
2023/12/18 04:01:36;;;;;;;18.52;14.07;;;4.90;99.90;;;;;;4883112;29;20052;-74
2023/12/18 04:04:03;;;;;;;22.05;13.57;;;4.80;99.90;;;;;;4872142;29;20045;-74
2023/12/18 04:06:30;;;;;;;23.55;12.93;;;4.80;99.90;;;;;;4875851;29;20049;-74
2023/12/18 04:08:57;;;;;;;21.27;14.05;;;4.70;99.90;;;;;;4895043;29;20132;-74
2023/12/18 04:11:24;;;;;;;18.35;13.13;;;4.80;99.90;;;;;;4875750;29;20128;-74
2023/12/18 04:13:51;;;;;;;21.30;13.73;;;4.80;99.90;;;;;;4893051;29;20048;-74
2023/12/18 04:16:18;;;;;;;20.73;13.32;;;4.80;99.90;;;;;;4889174;29;20660;-74
2023/12/18 04:18:45;;;;;;;19.05;13.40;;;4.80;99.90;;;;;;4893286;29;21641;-74
2023/12/18 04:21:12;;;;;;;27.00;16.02;;;4.80;99.90;;;;;;4887622;29;20142;-75
2023/12/18 04:23:39;;;;;;;24.42;14.73;;;4.70;99.90;;;;;;4908039;29;20740;-75
2023/12/18 04:26:06;;;;;;;27.65;15.10;;;4.70;99.90;;;;;;4888966;29;20036;-74
2023/12/18 04:28:32;;;;;;;27.45;14.35;;;4.60;99.90;;;;;;4896531;29;20491;-74
2023/12/18 04:31:00;;;;;;;21.52;13.93;;;4.70;99.90;;;;;;4894880;29;20048;-75
2023/12/18 04:33:27;;;;;;;24.17;14.88;;;4.60;99.90;;;;;;4909708;29;20048;-74
2023/12/18 04:35:54;;;;;;;31.80;17.58;;;4.60;99.90;;;;;;4891096;29;20052;-74
2023/12/18 04:38:20;;;;;;;34.38;16.33;;;4.50;99.90;;;;;;4909221;29;20153;-74
2023/12/18 04:40:47;;;;;;;30.60;16.50;;;4.60;99.90;;;;;;4905901;28;20119;-74
2023/12/18 04:43:14;;;;;;;26.50;15.65;;;4.50;99.90;;;;;;4908742;29;20052;-74
2023/12/18 04:45:40;;;;;;;31.90;17.92;;;4.50;99.90;;;;;;4907181;29;20113;-73
2023/12/18 04:48:07;;;;;;;29.20;17.75;;;4.40;99.90;;;;;;4906566;29;20052;-73
2023/12/18 04:50:34;;;;;;;31.13;15.45;;;4.40;99.90;;;;;;4891284;28;20040;-73
2023/12/18 04:53:01;;;;;;;22.55;13.93;;;4.40;99.90;;;;;;4895892;29;20052;-73
2023/12/18 04:55:28;;;;;;;27.48;15.75;;;4.40;99.90;;;;;;4886878;29;20711;-72
2023/12/18 04:57:56;;;;;;;35.65;16.08;;;4.30;99.90;;;;;;4896378;29;20503;-73
2023/12/18 05:00:23;;;;;;;27.65;17.52;;;4.30;99.90;;;;;;4893557;29;20577;-73
2023/12/18 05:02:50;;;;;;;33.03;17.45;;;4.30;99.90;;;;;;4890736;29;21460;-74
2023/12/18 05:05:17;;;;;;;37.78;18.85;;;4.30;99.90;;;;;;4907484;29;20040;-74
2023/12/18 05:07:44;;;;;;;32.70;18.55;;;4.30;99.90;;;;;;4894318;29;20692;-73
2023/12/18 05:10:11;;;;;;;28.17;18.38;;;4.30;99.90;;;;;;4890969;29;20052;-74
2023/12/18 05:12:38;;;;;;;32.22;17.25;;;4.30;99.90;;;;;;4892895;29;20438;-75
2023/12/18 05:15:05;;;;;;;33.00;18.13;;;4.30;99.90;;;;;;4891569;29;20054;-74
2023/12/18 05:17:37;;;;;;;36.00;18.98;;;4.30;99.90;;;;;;4891725;29;20063;-74
2023/12/18 05:20:08;;;;;;;33.15;17.92;;;4.20;99.90;;;;;;4910305;29;20056;-74
2023/12/18 05:22:35;;;;;;;41.47;17.98;;;4.20;99.90;;;;;;4890287;29;20055;-74
2023/12/18 05:25:02;;;;;;;41.38;20.30;;;4.20;99.90;;;;;;4887259;29;20044;-74
2023/12/18 05:27:29;;;;;;;39.08;19.83;;;4.20;99.90;;;;;;4907060;29;20044;-74
2023/12/18 05:29:55;;;;;;;46.80;21.85;;;4.20;99.90;;;;;;4908614;29;20143;-74
2023/12/18 05:32:22;;;;;;;38.42;20.13;;;4.10;99.90;;;;;;4908569;29;20581;-74
2023/12/18 05:34:50;;;;;;;42.58;21.50;;;4.10;99.90;;;;;;4904924;29;20204;-74
2023/12/18 05:37:17;;;;;;;37.22;20.20;;;4.10;99.90;;;;;;4876041;29;20045;-74
2023/12/18 05:39:43;;;;;;;44.25;20.52;;;4.00;99.90;;;;;;4876171;29;20073;-74
2023/12/18 05:42:11;;;;;;;41.17;19.85;;;4.00;99.90;;;;;;4876794;29;20032;-74
2023/12/18 05:44:38;;;;;;;49.28;22.98;;;4.00;99.90;;;;;;4870228;29;20135;-74
2023/12/18 05:47:05;;;;;;;32.50;18.05;;;3.90;99.90;;;;;;4887661;29;20065;-74
2023/12/18 05:49:31;;;;;;;40.60;20.63;;;3.90;99.90;;;;;;4888381;29;20044;-74
2023/12/18 05:51:59;;;;;;;38.38;20.20;;;3.90;99.90;;;;;;4889304;29;20047;-73
2023/12/18 05:54:26;;;;;;;38.38;20.23;;;3.90;99.90;;;;;;4884343;29;20071;-75
2023/12/18 05:56:53;;;;;;;42.00;20.52;;;3.90;99.90;;;;;;4884423;29;20782;-75
2023/12/18 05:59:19;;;;;;;40.88;21.42;;;3.90;99.90;;;;;;4893668;29;20052;-75
2023/12/18 06:01:46;;;;;;;42.65;20.95;;;3.80;99.90;;;;;;4904290;28;20040;-75
2023/12/18 06:04:13;;;;;;;43.55;21.98;;;3.80;99.90;;;;;;4906435;29;20048;-77
2023/12/18 06:06:40;;;;;;;46.17;22.55;;;3.70;99.90;;;;;;4895937;29;20033;-73
2023/12/18 06:09:07;;;;;;;37.58;21.23;;;3.70;99.90;;;;;;4877270;29;20048;-74
2023/12/18 06:11:34;;;;;;;38.17;21.27;;;3.60;99.90;;;;;;4884325;29;20044;-74
2023/12/18 06:14:01;;;;;;;39.78;20.83;;;3.60;99.90;;;;;;4876686;29;20124;-75
2023/12/18 06:16:27;;;;;;;39.30;22.20;;;3.60;99.90;;;;;;4879719;29;20437;-74
2023/12/18 06:18:54;;;;;;;48.53;22.08;;;3.50;99.90;;;;;;4891581;29;20067;-74
2023/12/18 06:21:21;;;;;;;45.53;21.35;;;3.50;99.90;;;;;;4892478;29;20058;-74
2023/12/18 06:23:49;;;;;;;45.03;22.60;;;3.50;99.90;;;;;;4888542;29;20044;-74
2023/12/18 06:26:16;;;;;;;41.97;22.42;;;3.40;99.90;;;;;;4887940;29;20036;-74
2023/12/18 06:28:43;;;;;;;40.03;22.25;;;3.50;99.90;;;;;;4911679;29;20036;-74
2023/12/18 06:31:09;;;;;;;47.38;22.33;;;3.40;99.90;;;;;;4906284;29;20055;-74
2023/12/18 06:33:36;;;;;;;48.00;22.88;;;3.50;99.90;;;;;;4905162;29;20447;-74
2023/12/18 06:36:04;;;;;;;53.00;23.23;;;3.50;99.90;;;;;;4917910;29;20075;-74
2023/12/18 06:38:31;;;;;;;46.08;23.67;;;3.50;99.90;;;;;;4900886;29;20048;-74
2023/12/18 06:41:00;;;;;;;54.97;23.35;;;3.50;99.90;;;;;;4905771;29;20075;-74
2023/12/18 06:43:26;;;;;;;50.55;22.50;;;3.60;99.90;;;;;;4893595;29;20162;-76
2023/12/18 06:45:53;;;;;;;52.40;23.75;;;3.50;99.90;;;;;;4904466;29;20052;-73
2023/12/18 06:48:20;;;;;;;41.13;21.60;;;3.50;99.90;;;;;;4889986;29;20067;-73
2023/12/18 06:50:47;;;;;;;45.20;22.10;;;3.50;99.90;;;;;;4906847;29;20131;-73
2023/12/18 06:53:14;;;;;;;50.88;22.92;;;3.50;99.90;;;;;;4894215;29;20067;-74
2023/12/18 06:55:41;;;;;;;48.80;23.65;;;3.60;99.90;;;;;;4901096;29;20047;-73
2023/12/18 06:58:07;;;;;;;49.47;23.40;;;3.50;99.90;;;;;;4905801;29;20115;-76
2023/12/18 07:00:34;;;;;;;50.00;23.70;;;3.50;99.90;;;;;;4883625;28;20416;-73
2023/12/18 07:03:07;;;;;;;52.67;22.85;;;3.50;99.90;;;;;;4903812;29;20103;-75
2023/12/18 07:05:34;;;;;;;51.28;24.40;;;3.50;99.90;;;;;;4871876;29;20053;-74
2023/12/18 07:08:01;;;;;;;56.30;24.67;;;3.50;99.90;;;;;;4905963;29;20527;-74
2023/12/18 07:10:28;;;;;;;48.38;23.65;;;3.50;99.90;;;;;;4888084;29;20048;-74
2023/12/18 07:12:55;;;;;;;58.05;25.30;;;3.50;99.90;;;;;;4887182;29;20456;-73
2023/12/18 07:15:24;;;;;;;60.05;23.92;;;3.50;99.90;;;;;;4888695;29;20408;-74
2023/12/18 07:17:52;;;;;;;51.75;25.30;;;3.50;99.90;;;;;;4890317;29;20048;-74
2023/12/18 07:20:19;;;;;;;45.03;22.13;;;3.50;99.90;;;;;;4892617;28;20040;-74
2023/12/18 07:22:46;;;;;;;59.13;26.45;;;3.40;99.90;;;;;;4887498;29;20044;-74
2023/12/18 07:25:13;;;;;;;50.95;25.75;;;3.40;99.90;;;;;;4888170;29;20075;-74
2023/12/18 07:27:40;;;;;;;52.45;24.95;;;3.40;99.90;;;;;;4887142;29;20413;-74
2023/12/18 07:30:07;;;;;;;56.35;28.42;;;3.40;99.90;;;;;;4888311;29;20040;-74
2023/12/18 07:32:35;;;;;;;56.95;28.75;;;3.30;99.90;;;;;;4871712;29;20722;-75
2023/12/18 07:35:02;;;;;;;56.90;28.92;;;3.30;99.90;;;;;;4872388;29;20432;-74
2023/12/18 07:37:30;;;;;;;53.10;26.45;;;3.30;99.90;;;;;;4871825;29;20062;-74
2023/12/18 07:39:58;;;;;;;57.00;26.50;;;3.30;99.90;;;;;;4875799;29;20100;-74
2023/12/18 07:42:26;;;;;;;52.25;27.45;;;3.30;99.90;;;;;;4886843;29;20060;-74
2023/12/18 07:44:53;;;;;;;56.83;27.10;;;3.30;99.90;;;;;;4876938;29;20059;-74
2023/12/18 07:47:20;;;;;;;61.20;28.05;;;3.30;99.90;;;;;;4892870;29;20036;-75
2023/12/18 07:49:48;;;;;;;57.00;27.35;;;3.30;99.90;;;;;;4893265;29;20043;-74
2023/12/18 07:52:17;;;;;;;43.85;25.02;;;3.30;99.90;;;;;;4896526;28;20051;-74
2023/12/18 07:54:44;;;;;;;51.88;26.30;;;3.30;99.90;;;;;;4889083;29;20127;-74
2023/12/18 07:57:12;;;;;;;54.63;26.77;;;3.30;99.90;;;;;;4879535;29;20043;-74
2023/12/18 07:59:41;;;;;;;51.90;25.65;;;3.40;99.90;;;;;;4890116;29;20081;-74
2023/12/18 08:02:09;;;;;;;60.50;28.67;;;3.40;99.90;;;;;;4889974;29;20048;-74
2023/12/18 08:04:36;;;;;;;48.05;26.60;;;3.40;99.90;;;;;;4884501;29;20345;-74
2023/12/18 08:07:04;;;;;;;49.55;25.00;;;3.40;99.90;;;;;;4875029;29;20056;-74
2023/12/18 08:09:31;;;;;;;54.60;27.10;;;3.50;99.90;;;;;;4878007;29;20607;-75
2023/12/18 08:11:58;;;;;;;47.78;23.95;;;3.50;99.90;;;;;;4870758;29;20488;-74
2023/12/18 08:14:26;;;;;;;42.47;24.27;;;3.50;99.90;;;;;;4891287;29;20067;-74
2023/12/18 08:16:53;;;;;;;45.63;24.38;;;3.60;99.90;;;;;;4889417;29;20048;-74
2023/12/18 08:19:19;;;;;;;37.50;22.70;;;3.60;99.90;;;;;;4909788;29;20048;-74
2023/12/18 08:21:47;;;;;;;41.90;25.20;;;3.60;99.90;;;;;;4891912;29;20044;-74
2023/12/18 08:24:14;;;;;;;49.70;24.08;;;3.60;99.90;;;;;;4910360;29;20131;-74
2023/12/18 08:26:45;;;;;;;42.22;24.30;;;3.70;99.90;;;;;;4895006;29;20518;-74
2023/12/18 08:29:12;;;;;;;45.97;26.15;;;3.70;99.90;;;;;;4933474;23;20410;-76
2023/12/18 08:31:39;;;;;;;40.88;22.85;;;3.90;99.90;;;;;;4918212;28;20602;-75
2023/12/18 08:34:06;;;;;;;46.50;26.15;;;4.00;99.90;;;;;;4901877;29;20051;-75
2023/12/18 08:36:34;;;;;;;41.33;26.65;;;4.00;99.90;;;;;;4902524;29;20050;-74
2023/12/18 08:39:08;;;;;;;53.35;29.98;;;4.00;99.90;;;;;;4892243;29;20994;-75
2023/12/18 08:41:37;;;;;;;44.47;26.67;;;4.00;99.90;;;;;;4912481;29;20056;-75
2023/12/18 08:44:04;;;;;;;41.55;26.98;;;4.10;99.90;;;;;;4911536;29;20281;-75
2023/12/18 08:46:32;;;;;;;35.17;24.80;;;4.20;99.90;;;;;;4910432;28;20605;-75
2023/12/18 08:48:58;;;;;;;37.08;27.33;;;4.30;99.90;;;;;;4911951;29;20130;-76
2023/12/18 08:51:25;;;;;;;36.03;26.45;;;4.40;99.90;;;;;;4915813;28;20154;-74
2023/12/18 08:53:54;;;;;;;31.65;28.25;;;4.70;99.90;;;;;;4912332;29;20065;-75
2023/12/18 08:56:21;;;;;;;32.80;29.55;;;4.80;99.90;;;;;;4905670;29;20050;-74
2023/12/18 08:58:49;;;;;;;33.40;29.85;;;5.00;99.90;;;;;;4910462;29;20059;-75
2023/12/18 09:01:16;;;;;;;35.58;30.42;;;5.20;99.90;;;;;;4912665;29;20522;-76
2023/12/18 09:03:49;;;;;;;33.80;30.55;;;5.40;99.90;;;;;;4905000;29;20051;-76
2023/12/18 09:06:16;;;;;;;38.53;34.42;;;5.50;99.90;;;;;;4909445;29;20063;-76
2023/12/18 09:08:43;;;;;;;36.58;32.58;;;5.50;99.90;;;;;;4907028;29;20052;-75
2023/12/18 09:11:10;;;;;;;37.92;34.03;;;5.70;99.90;;;;;;4914544;29;20305;-76
2023/12/18 09:13:38;;;;;;;35.67;32.25;;;5.80;99.90;;;;;;4907920;29;20047;-74
2023/12/18 09:16:07;;;;;;;34.80;31.48;;;5.90;99.90;;;;;;4903725;28;20051;-75
2023/12/18 09:18:33;;;;;;;36.58;33.13;;;6.00;99.90;;;;;;4914123;29;20534;-75
2023/12/18 09:21:01;;;;;;;37.05;33.83;;;6.00;99.90;;;;;;4911409;29;20055;-74
2023/12/18 09:23:28;;;;;;;37.63;34.08;;;6.00;99.90;;;;;;4909266;29;20052;-75
2023/12/18 09:25:56;;;;;;;36.80;33.15;;;6.10;99.90;;;;;;4905210;29;20040;-74
2023/12/18 09:28:23;;;;;;;39.63;36.10;;;6.30;99.90;;;;;;4910386;29;20700;-75
2023/12/18 09:30:50;;;;;;;39.08;35.45;;;6.30;99.90;;;;;;4906726;28;20048;-74
2023/12/18 09:33:17;;;;;;;39.15;35.78;;;6.00;99.90;;;;;;4912777;29;20085;-75
2023/12/18 09:35:45;;;;;;;38.70;35.15;;;6.10;99.90;;;;;;4905859;29;20160;-75
2023/12/18 09:38:11;;;;;;;39.47;36.00;;;6.20;99.90;;;;;;4908097;29;20051;-75
2023/12/18 09:40:44;;;;;;;38.80;34.97;;;6.30;99.90;;;;;;4912066;28;20043;-75
2023/12/18 09:43:18;;;;;;;39.47;35.70;;;6.40;99.90;;;;;;4913230;29;20039;-75
2023/12/18 09:45:48;;;;;;;39.67;36.13;;;6.40;99.90;;;;;;4907053;28;20470;-74
2023/12/18 09:48:16;;;;;;;39.25;35.92;;;6.40;99.90;;;;;;4908577;29;20314;-75
2023/12/18 09:50:46;;;;;;;38.53;35.33;;;6.30;99.90;;;;;;4904534;29;20541;-75
2023/12/18 09:53:14;;;;;;;41.00;37.65;;;6.30;99.90;;;;;;4910489;29;20408;-74
2023/12/18 09:55:41;;;;;;;39.63;36.00;;;6.30;99.90;;;;;;4909707;28;20058;-73
2023/12/18 09:58:08;;;;;;;38.75;35.38;;;6.30;99.90;;;;;;4909119;29;20052;-75
2023/12/18 10:00:35;;;;;;;37.25;34.50;;;6.40;99.90;;;;;;4909813;29;20489;-74
2023/12/18 10:03:02;;;;;;;37.47;34.45;;;6.50;99.90;;;;;;4909215;29;21058;-74
2023/12/18 10:05:29;;;;;;;38.10;34.70;;;6.60;99.90;;;;;;4904279;29;20142;-74
2023/12/18 10:08:00;;;;;;;35.25;32.08;;;6.70;99.90;;;;;;4908309;29;20094;-74
2023/12/18 10:10:27;;;;;;;36.40;33.47;;;6.80;99.90;;;;;;4910102;29;20051;-74
2023/12/18 10:12:54;;;;;;;39.20;36.13;;;6.70;99.90;;;;;;4901952;29;20135;-75
2023/12/18 10:15:21;;;;;;;39.58;36.40;;;6.80;99.90;;;;;;4902823;29;20055;-74
2023/12/18 10:17:48;;;;;;;35.28;32.47;;;6.60;99.90;;;;;;4904582;29;20055;-75
2023/12/18 10:20:16;;;;;;;40.28;36.60;;;6.60;99.90;;;;;;4913853;29;20150;-74
2023/12/18 10:22:43;;;;;;;37.55;34.38;;;6.60;99.90;;;;;;4908742;29;20043;-75
2023/12/18 10:25:12;;;;;;;40.30;36.90;;;6.80;99.90;;;;;;4923322;28;20035;-75
2023/12/18 10:27:38;;;;;;;32.35;29.30;;;6.80;99.90;;;;;;4910739;29;20106;-75
2023/12/18 10:30:07;;;;;;;33.88;30.40;;;6.90;99.90;;;;;;4905010;29;20072;-75
2023/12/18 10:32:39;;;;;;;35.58;32.33;;;6.90;99.90;;;;;;4909283;29;20096;-74
2023/12/18 10:35:08;;;;;;;34.13;31.17;;;6.90;99.90;;;;;;4921021;28;20052;-75
2023/12/18 10:37:36;;;;;;;34.03;30.77;;;6.90;99.90;;;;;;4910786;29;20542;-74
2023/12/18 10:40:07;;;;;;;35.80;32.85;;;7.10;99.90;;;;;;4908715;29;20055;-74
2023/12/18 10:42:36;;;;;;;41.20;37.63;;;7.30;99.90;;;;;;4908788;29;20054;-74
2023/12/18 10:45:06;;;;;;;42.78;39.47;;;7.10;99.90;;;;;;4906100;29;20103;-74
2023/12/18 10:47:33;;;;;;;36.30;33.17;;;7.30;99.90;;;;;;4908449;29;20051;-74
2023/12/18 10:50:03;;;;;;;38.72;35.03;;;7.10;99.90;;;;;;4905082;29;20059;-73
2023/12/18 10:52:31;;;;;;;38.55;35.45;;;7.10;99.90;;;;;;4932939;28;20053;-74
2023/12/18 10:55:04;;;;;;;37.15;33.72;;;7.10;99.90;;;;;;4924543;28;20056;-74
2023/12/18 10:57:36;;;;;;;36.63;33.42;;;7.00;99.90;;;;;;4930931;28;20047;-74
2023/12/18 11:00:07;;;;;;;34.25;31.33;;;6.80;99.90;;;;;;4925969;28;20521;-74
2023/12/18 11:02:37;;;;;;;35.28;32.45;;;6.70;99.90;;;;;;4930842;28;20043;-74
2023/12/18 11:05:06;;;;;;;33.33;30.45;;;6.70;99.90;;;;;;4915178;28;20044;-74
2023/12/18 11:07:33;;;;;;;33.35;30.35;;;6.80;99.90;;;;;;4923733;28;20585;-74
2023/12/18 11:10:00;;;;;;;31.50;28.67;;;6.80;99.90;;;;;;4925190;28;20111;-74
2023/12/18 11:12:28;;;;;;;30.23;27.42;;;6.80;99.90;;;;;;4910052;29;20052;-74
2023/12/18 11:15:19;;;;;;;32.03;28.90;;;6.80;99.90;;;;;;4898669;29;20056;-74
2023/12/18 11:18:20;;;;;;;31.92;29.02;;;6.90;99.90;;;;;;4922805;28;20043;-73
2023/12/18 11:20:48;;;;;;;33.10;30.00;;;7.00;99.90;;;;;;4923643;28;20059;-73
2023/12/18 11:23:16;;;;;;;34.85;31.33;;;7.00;99.90;;;;;;4919466;28;20070;-74
2023/12/18 11:25:47;;;;;;;33.22;29.98;;;7.00;99.90;;;;;;4928062;28;20088;-74
2023/12/18 11:28:24;;;;;;;30.67;28.27;;;7.00;99.90;;;;;;4918909;28;20709;-74
2023/12/18 11:31:00;;;;;;;32.00;29.15;;;6.90;99.90;;;;;;4926971;28;20553;-73
2023/12/18 11:33:29;;;;;;;30.02;27.17;;;6.80;99.90;;;;;;4926844;28;20055;-75
2023/12/18 11:36:11;;;;;;;30.27;27.48;;;6.80;99.90;;;;;;4927677;28;20720;-73
2023/12/18 11:38:38;;;;;;;29.83;27.00;;;6.90;99.90;;;;;;4933886;28;20061;-74
2023/12/18 11:41:05;;;;;;;27.85;25.25;;;6.80;99.90;;;;;;4892086;28;20051;-74
2023/12/18 11:43:45;;;;;;;30.77;27.92;;;6.80;99.90;;;;;;4934658;28;20059;-74
2023/12/18 11:46:14;;;;;;;30.33;27.50;;;6.70;99.90;;;;;;4927603;28;20047;-74
2023/12/18 11:48:45;;;;;;;32.67;29.33;;;6.80;99.90;;;;;;4909650;29;20062;-74
2023/12/18 11:51:13;;;;;;;32.15;29.15;;;6.70;99.90;;;;;;4914198;28;20055;-74
2023/12/18 11:53:40;;;;;;;33.38;30.00;;;6.70;99.90;;;;;;4931263;28;20587;-74
2023/12/18 11:56:09;;;;;;;32.92;29.55;;;6.70;99.90;;;;;;4922521;28;20078;-74
2023/12/18 11:58:38;;;;;;;32.97;29.80;;;6.70;99.90;;;;;;4931049;28;20043;-74
2023/12/18 12:01:05;;;;;;;32.22;28.92;;;6.80;99.90;;;;;;4910999;28;20047;-73
2023/12/18 12:03:33;;;;;;;33.28;29.98;;;6.80;99.90;;;;;;4934527;28;20036;-74
2023/12/18 12:06:02;;;;;;;34.95;31.30;;;6.80;99.90;;;;;;4922030;28;20052;-73
2023/12/18 12:08:28;;;;;;;34.88;31.30;;;7.00;99.90;;;;;;4915404;29;20043;-74
2023/12/18 12:10:57;;;;;;;34.47;31.10;;;7.00;99.90;;;;;;4914342;28;20055;-74
2023/12/18 12:13:26;;;;;;;33.20;29.95;;;7.00;99.90;;;;;;4926946;28;20063;-74
2023/12/18 12:16:03;;;;;;;34.50;31.25;;;6.90;99.90;;;;;;4921156;28;20039;-73
2023/12/18 12:18:31;;;;;;;35.08;31.48;;;6.90;99.90;;;;;;4912675;28;20062;-74
2023/12/18 12:20:59;;;;;;;40.30;36.30;;;6.90;99.90;;;;;;4929252;28;20039;-74
2023/12/18 12:23:27;;;;;;;35.50;32.30;;;7.20;99.90;;;;;;4909001;29;20070;-74
2023/12/18 12:25:59;;;;;;;35.50;32.50;;;7.60;99.90;;;;;;4922396;28;20054;-74
2023/12/18 12:28:30;;;;;;;36.25;32.40;;;7.80;99.90;;;;;;4927059;28;20837;-74
2023/12/18 12:30:58;;;;;;;39.38;35.55;;;8.00;99.90;;;;;;4926609;28;20787;-74
2023/12/18 12:33:25;;;;;;;45.38;41.15;;;8.30;99.90;;;;;;4934423;28;20047;-74
2023/12/18 12:35:52;;;;;;;41.05;37.63;;;8.30;99.90;;;;;;4927602;28;20478;-74
2023/12/18 12:38:19;;;;;;;41.85;38.55;;;8.30;99.90;;;;;;4930311;28;20051;-74
2023/12/18 12:40:46;;;;;;;41.28;38.22;;;8.40;99.90;;;;;;4926350;28;20062;-74
2023/12/18 12:43:16;;;;;;;36.55;33.45;;;8.40;99.90;;;;;;4928365;28;20577;-73